Time;durP1;ratioP1;P1;durP2;ratioP2;P2;SDS_P1;SDS_P2;PMS_P1;PMS_P2;Temp;Humidity;BMP_temperature;BMP_pressure;BME280_temperature;BME280_humidity;BME280_pressure;Samples;Min_cycle;Max_cycle;Signal;HPM_P1;HPM_P2
2021/07/09 00:00:54;;;;;;;30.87;29.00;;;;;;;;;;5053741;28;20466;-64
2021/07/09 00:03:22;;;;;;;31.60;29.90;;;;;;;;;;5040447;28;20545;-64
2021/07/09 00:05:50;;;;;;;30.03;28.33;;;;;;;;;;5034635;28;20455;-64
2021/07/09 00:08:17;;;;;;;31.13;29.43;;;;;;;;;;5050968;28;20464;-64
2021/07/09 00:10:45;;;;;;;30.80;29.20;;;;;;;;;;5046808;28;20536;-66
2021/07/09 00:13:12;;;;;;;31.27;29.67;;;;;;;;;;5045654;28;20475;-64
2021/07/09 00:15:39;;;;;;;30.47;28.57;;;;;;;;;;5053376;28;20478;-65
2021/07/09 00:18:06;;;;;;;31.30;29.50;;;;;;;;;;5044642;28;20457;-67
2021/07/09 00:20:33;;;;;;;32.30;30.60;;;;;;;;;;5039370;28;20486;-66
2021/07/09 00:23:02;;;;;;;31.50;29.80;;;;;;;;;;5053477;28;20487;-64
2021/07/09 00:25:29;;;;;;;32.67;30.80;;;;;;;;;;5054582;28;20528;-65
2021/07/09 00:27:56;;;;;;;32.33;30.60;;;;;;;;;;5048510;28;20464;-66
2021/07/09 00:30:23;;;;;;;32.60;30.90;;;;;;;;;;5051899;28;21049;-64
2021/07/09 00:32:50;;;;;;;32.80;30.87;;;;;;;;;;5052548;28;20464;-65
2021/07/09 00:35:17;;;;;;;31.37;29.67;;;;;;;;;;5050840;28;20985;-67
2021/07/09 00:37:44;;;;;;;31.80;30.07;;;;;;;;;;5054072;28;20462;-68
2021/07/09 00:40:14;;;;;;;31.87;30.17;;;;;;;;;;5052523;28;20970;-66
2021/07/09 00:42:42;;;;;;;32.87;31.07;;;;;;;;;;5053318;28;20486;-67
2021/07/09 00:45:10;;;;;;;34.20;32.20;;;;;;;;;;5052488;28;20487;-68
2021/07/09 00:47:37;;;;;;;33.87;31.97;;;;;;;;;;5054634;28;20459;-67
2021/07/09 00:50:06;;;;;;;32.50;30.80;;;;;;;;;;5051100;28;20467;-66
2021/07/09 00:52:33;;;;;;;33.67;31.77;;;;;;;;;;5051743;28;20456;-65
2021/07/09 00:55:00;;;;;;;34.23;32.10;;;;;;;;;;5049001;28;20488;-63
2021/07/09 00:57:28;;;;;;;35.07;33.07;;;;;;;;;;5053651;28;20963;-67
2021/07/09 00:59:56;;;;;;;34.80;32.90;;;;;;;;;;5054672;28;20447;-66
2021/07/09 01:02:23;;;;;;;33.50;31.80;;;;;;;;;;5050554;28;20480;-67
2021/07/09 01:04:56;;;;;;;32.97;31.20;;;;;;;;;;5064707;28;20880;-66
2021/07/09 01:07:23;;;;;;;32.17;30.37;;;;;;;;;;5052451;28;20503;-66
2021/07/09 01:09:50;;;;;;;33.20;31.40;;;;;;;;;;5052137;28;20458;-66
2021/07/09 01:12:17;;;;;;;34.80;32.80;;;;;;;;;;5038185;28;20457;-65
2021/07/09 01:14:46;;;;;;;35.63;33.73;;;;;;;;;;5037184;28;20868;-64
2021/07/09 01:17:14;;;;;;;34.20;32.47;;;;;;;;;;5049982;28;20475;-66
2021/07/09 01:19:41;;;;;;;34.87;32.97;;;;;;;;;;5053127;28;20444;-65
2021/07/09 01:22:09;;;;;;;33.93;32.13;;;;;;;;;;5051225;28;20503;-66
2021/07/09 01:24:38;;;;;;;35.40;33.17;;;;;;;;;;5052454;28;20502;-66
2021/07/09 01:27:05;;;;;;;35.97;33.97;;;;;;;;;;5050341;28;20463;-66
2021/07/09 01:29:33;;;;;;;34.90;32.90;;;;;;;;;;5052833;28;20820;-65
2021/07/09 01:32:00;;;;;;;35.87;33.90;;;;;;;;;;5052068;28;20456;-65
2021/07/09 01:34:27;;;;;;;35.50;33.60;;;;;;;;;;5042887;28;20472;-66
2021/07/09 01:36:54;;;;;;;35.87;34.00;;;;;;;;;;5052668;28;20513;-66
2021/07/09 01:39:21;;;;;;;35.10;33.20;;;;;;;;;;5055149;28;20439;-65
2021/07/09 01:41:50;;;;;;;35.70;33.50;;;;;;;;;;5052511;28;20488;-66
2021/07/09 01:44:17;;;;;;;37.00;34.70;;;;;;;;;;5052568;28;20484;-67
2021/07/09 01:46:44;;;;;;;35.17;33.10;;;;;;;;;;5051501;28;20471;-66
2021/07/09 01:49:11;;;;;;;35.23;33.13;;;;;;;;;;5052306;28;20460;-66
2021/07/09 01:51:38;;;;;;;33.90;32.10;;;;;;;;;;5038659;28;20468;-66
2021/07/09 01:54:05;;;;;;;33.60;31.90;;;;;;;;;;5039573;28;21005;-64
2021/07/09 01:56:32;;;;;;;33.50;31.70;;;;;;;;;;5051090;28;20478;-65
2021/07/09 01:59:01;;;;;;;33.00;31.20;;;;;;;;;;5052199;28;20964;-64
2021/07/09 02:01:28;;;;;;;31.43;29.60;;;;;;;;;;5050073;28;20482;-65
2021/07/09 02:03:55;;;;;;;31.10;29.40;;;;;;;;;;5050971;28;21013;-66
2021/07/09 02:06:22;;;;;;;31.10;29.40;;;;;;;;;;5049552;28;20452;-66
2021/07/09 02:08:49;;;;;;;29.67;28.07;;;;;;;;;;5051879;28;20467;-66
2021/07/09 02:11:16;;;;;;;29.60;28.03;;;;;;;;;;5051191;28;20448;-66
2021/07/09 02:13:43;;;;;;;29.10;27.50;;;;;;;;;;5033595;28;20469;-66
2021/07/09 02:16:12;;;;;;;28.97;27.37;;;;;;;;;;5040252;28;20468;-65
2021/07/09 02:18:39;;;;;;;28.13;26.63;;;;;;;;;;5051789;28;20452;-64
2021/07/09 02:21:06;;;;;;;29.00;27.40;;;;;;;;;;5050597;28;20463;-64
2021/07/09 02:23:33;;;;;;;28.67;27.07;;;;;;;;;;5050953;28;20491;-64
2021/07/09 02:26:00;;;;;;;28.70;27.10;;;;;;;;;;5046051;28;20466;-64
2021/07/09 02:28:28;;;;;;;29.73;28.03;;;;;;;;;;5051603;28;20452;-64
2021/07/09 02:30:55;;;;;;;29.57;27.90;;;;;;;;;;5049947;28;21085;-64
2021/07/09 02:33:23;;;;;;;30.23;28.60;;;;;;;;;;5050844;28;20467;-64
2021/07/09 02:35:50;;;;;;;30.00;28.30;;;;;;;;;;5050392;28;20531;-66
2021/07/09 02:38:17;;;;;;;29.80;28.20;;;;;;;;;;5047637;28;20470;-64
2021/07/09 02:40:44;;;;;;;31.40;29.27;;;;;;;;;;5050716;28;20459;-69
2021/07/09 02:43:12;;;;;;;30.60;28.77;;;;;;;;;;5034856;28;20499;-64
2021/07/09 02:45:39;;;;;;;35.73;33.07;;;;;;;;;;5051535;28;20460;-64
2021/07/09 02:48:06;;;;;;;34.63;32.50;;;;;;;;;;5050520;28;20468;-64
2021/07/09 02:50:35;;;;;;;35.07;33.17;;;;;;;;;;5051551;28;20451;-65
2021/07/09 02:53:02;;;;;;;36.00;33.87;;;;;;;;;;5050099;28;20487;-64
2021/07/09 02:55:29;;;;;;;35.93;33.93;;;;;;;;;;5051021;28;20452;-66
2021/07/09 02:57:56;;;;;;;35.37;33.47;;;;;;;;;;5045270;28;20468;-65
2021/07/09 03:00:23;;;;;;;34.30;32.50;;;;;;;;;;5047561;28;20841;-65
2021/07/09 03:02:50;;;;;;;35.30;33.30;;;;;;;;;;5050672;28;20494;-64
2021/07/09 03:05:17;;;;;;;35.20;33.40;;;;;;;;;;5046096;28;20468;-65
2021/07/09 03:07:46;;;;;;;34.00;32.20;;;;;;;;;;5050746;28;20444;-67
2021/07/09 03:10:13;;;;;;;33.00;31.27;;;;;;;;;;5038031;28;20452;-65
2021/07/09 03:12:41;;;;;;;33.40;31.60;;;;;;;;;;5049249;28;20905;-64
2021/07/09 03:15:09;;;;;;;32.63;30.93;;;;;;;;;;5032597;28;20476;-64
2021/07/09 03:17:36;;;;;;;33.33;31.40;;;;;;;;;;5031226;28;20459;-65
2021/07/09 03:20:04;;;;;;;31.37;29.57;;;;;;;;;;5047663;28;20474;-65
2021/07/09 03:22:31;;;;;;;30.90;29.20;;;;;;;;;;5051205;28;20483;-64
2021/07/09 03:25:00;;;;;;;30.27;28.47;;;;;;;;;;5049989;28;21013;-65
2021/07/09 03:27:27;;;;;;;30.17;28.47;;;;;;;;;;5049659;28;20479;-64
2021/07/09 03:29:54;;;;;;;29.03;27.33;;;;;;;;;;5036324;28;20827;-64
2021/07/09 03:32:21;;;;;;;29.80;28.00;;;;;;;;;;5049789;28;20475;-64
2021/07/09 03:34:48;;;;;;;28.53;26.93;;;;;;;;;;5050353;28;20490;-65
2021/07/09 03:37:15;;;;;;;29.03;27.30;;;;;;;;;;5050286;28;20468;-64
2021/07/09 03:39:42;;;;;;;28.80;27.23;;;;;;;;;;5049638;28;20482;-64
2021/07/09 03:42:11;;;;;;;29.13;27.43;;;;;;;;;;5048076;28;21026;-64
2021/07/09 03:44:38;;;;;;;29.67;27.97;;;;;;;;;;5050849;28;20467;-66
2021/07/09 03:47:05;;;;;;;31.03;29.03;;;;;;;;;;5049790;28;20816;-64
2021/07/09 03:49:32;;;;;;;30.23;28.40;;;;;;;;;;5042243;28;20467;-65
2021/07/09 03:51:59;;;;;;;30.40;28.60;;;;;;;;;;5049528;28;20958;-65
2021/07/09 03:54:26;;;;;;;29.57;27.87;;;;;;;;;;5049863;28;20486;-65
2021/07/09 03:56:53;;;;;;;33.03;30.43;;;;;;;;;;5050724;28;20875;-64
2021/07/09 03:59:22;;;;;;;32.40;30.50;;;;;;;;;;5042295;28;20453;-65
2021/07/09 04:01:49;;;;;;;31.70;29.90;;;;;;;;;;5048290;28;20463;-67
2021/07/09 04:06:54;;;;;;;29.70;28.10;;;;;;;;;;5002090;28;20531;-67
2021/07/09 04:09:21;;;;;;;30.23;28.27;;;;;;;;;;5009738;28;20477;-68
2021/07/09 04:11:48;;;;;;;29.73;27.93;;;;;;;;;;5014745;28;20442;-67
2021/07/09 04:14:15;;;;;;;29.33;27.40;;;;;;;;;;5003416;28;20468;-68
2021/07/09 04:16:44;;;;;;;30.23;28.43;;;;;;;;;;5014433;28;20860;-68
2021/07/09 04:19:11;;;;;;;29.57;27.80;;;;;;;;;;5012924;28;20469;-67
2021/07/09 04:21:39;;;;;;;29.30;27.50;;;;;;;;;;5013760;28;20549;-68
2021/07/09 04:24:06;;;;;;;29.50;27.80;;;;;;;;;;5013816;28;20579;-68
2021/07/09 04:26:34;;;;;;;27.40;25.80;;;;;;;;;;5012721;28;20473;-68
2021/07/09 04:29:01;;;;;;;28.07;26.47;;;;;;;;;;5012012;28;20473;-68
2021/07/09 04:31:28;;;;;;;29.27;27.40;;;;;;;;;;5013146;28;20476;-67
2021/07/09 04:33:57;;;;;;;30.47;28.60;;;;;;;;;;5009800;28;20465;-67
2021/07/09 04:36:24;;;;;;;31.57;29.60;;;;;;;;;;5013411;28;20480;-68
2021/07/09 04:38:51;;;;;;;31.83;29.77;;;;;;;;;;5014137;28;20458;-67
2021/07/09 04:41:18;;;;;;;32.40;30.30;;;;;;;;;;5014393;28;20453;-67
2021/07/09 04:43:45;;;;;;;31.83;29.97;;;;;;;;;;5012303;28;20512;-67
2021/07/09 04:46:13;;;;;;;32.10;30.07;;;;;;;;;;5013792;28;20473;-67
2021/07/09 04:48:40;;;;;;;32.40;30.30;;;;;;;;;;5012863;28;20469;-68
2021/07/09 04:51:08;;;;;;;31.57;29.47;;;;;;;;;;5012771;28;20474;-67
2021/07/09 04:53:35;;;;;;;31.57;29.67;;;;;;;;;;5014129;28;20452;-67
2021/07/09 04:56:02;;;;;;;32.57;30.20;;;;;;;;;;5012317;28;20854;-67
2021/07/09 04:58:30;;;;;;;33.23;30.83;;;;;;;;;;5007827;28;20477;-68
2021/07/09 05:00:57;;;;;;;32.07;30.17;;;;;;;;;;5012434;28;20469;-67
2021/07/09 05:03:24;;;;;;;32.70;30.60;;;;;;;;;;5012852;28;20833;-68
2021/07/09 05:05:52;;;;;;;31.17;29.37;;;;;;;;;;5013343;28;20481;-67
2021/07/09 05:08:21;;;;;;;31.70;29.70;;;;;;;;;;5012143;28;20485;-67
2021/07/09 05:10:48;;;;;;;31.43;29.10;;;;;;;;;;5012543;28;20485;-68
2021/07/09 05:13:15;;;;;;;31.10;29.30;;;;;;;;;;5012080;28;20462;-68
2021/07/09 05:15:43;;;;;;;31.80;29.90;;;;;;;;;;5011824;28;21071;-68
2021/07/09 05:18:10;;;;;;;31.13;29.23;;;;;;;;;;5011725;28;20819;-68
2021/07/09 05:20:37;;;;;;;30.60;28.70;;;;;;;;;;5005251;28;20471;-67
2021/07/09 05:23:04;;;;;;;31.30;29.40;;;;;;;;;;5000501;28;20492;-67
2021/07/09 05:25:33;;;;;;;30.90;29.00;;;;;;;;;;5013182;28;20473;-67
2021/07/09 05:28:00;;;;;;;30.67;28.77;;;;;;;;;;5006474;28;20457;-67
2021/07/09 05:30:27;;;;;;;31.33;29.33;;;;;;;;;;5011995;28;20473;-67
2021/07/09 05:32:55;;;;;;;31.47;29.67;;;;;;;;;;5011031;28;20457;-68
2021/07/09 05:35:22;;;;;;;31.80;29.80;;;;;;;;;;5012041;28;20536;-67
2021/07/09 05:37:49;;;;;;;31.80;29.83;;;;;;;;;;5011778;28;20472;-68
2021/07/09 05:40:16;;;;;;;30.50;28.70;;;;;;;;;;5012237;28;20457;-67
2021/07/09 05:42:45;;;;;;;31.33;29.40;;;;;;;;;;5011874;28;20470;-67
2021/07/09 05:45:13;;;;;;;30.80;28.90;;;;;;;;;;5008970;28;20493;-67
2021/07/09 05:47:40;;;;;;;31.30;29.47;;;;;;;;;;5012473;28;20468;-67
2021/07/09 05:50:08;;;;;;;29.87;28.10;;;;;;;;;;5012009;28;20468;-67
2021/07/09 05:52:35;;;;;;;30.43;28.50;;;;;;;;;;5012538;28;20462;-67
2021/07/09 05:55:02;;;;;;;31.53;29.70;;;;;;;;;;5011753;28;20864;-66
2021/07/09 05:57:29;;;;;;;29.53;27.83;;;;;;;;;;5011994;28;20454;-67
2021/07/09 05:59:57;;;;;;;30.27;28.47;;;;;;;;;;5010176;28;20476;-66
2021/07/09 06:02:25;;;;;;;33.83;31.90;;;;;;;;;;5012661;28;20445;-66
2021/07/09 06:04:52;;;;;;;33.23;31.23;;;;;;;;;;5010737;28;20497;-67
2021/07/09 06:07:19;;;;;;;34.57;32.47;;;;;;;;;;5012297;28;20454;-66
2021/07/09 06:09:46;;;;;;;34.27;31.97;;;;;;;;;;5010968;28;20508;-68
2021/07/09 06:12:14;;;;;;;40.13;38.07;;;;;;;;;;4992656;28;20474;-66
2021/07/09 06:14:41;;;;;;;29.43;27.50;;;;;;;;;;5004959;28;21038;-67
2021/07/09 06:17:09;;;;;;;32.70;30.80;;;;;;;;;;5012441;28;20454;-68
2021/07/09 06:19:36;;;;;;;34.70;32.50;;;;;;;;;;5012215;28;20953;-67
2021/07/09 06:22:04;;;;;;;35.70;33.90;;;;;;;;;;5011586;28;20965;-66
2021/07/09 06:24:31;;;;;;;33.20;31.20;;;;;;;;;;5011482;28;20996;-67
2021/07/09 06:26:58;;;;;;;34.90;32.80;;;;;;;;;;5011722;28;20446;-67
2021/07/09 06:29:25;;;;;;;32.30;30.60;;;;;;;;;;5011340;28;20457;-67
2021/07/09 06:31:52;;;;;;;33.30;31.40;;;;;;;;;;5011574;28;20458;-67
2021/07/09 06:34:20;;;;;;;33.40;31.40;;;;;;;;;;5012040;28;20449;-68
2021/07/09 06:36:48;;;;;;;29.50;27.80;;;;;;;;;;5022334;28;20969;-67
2021/07/09 06:39:15;;;;;;;27.47;25.90;;;;;;;;;;5011900;28;20462;-67
2021/07/09 06:41:42;;;;;;;26.73;25.23;;;;;;;;;;5011251;28;20445;-67
2021/07/09 06:44:09;;;;;;;27.60;26.00;;;;;;;;;;5012227;28;20489;-68
2021/07/09 06:46:36;;;;;;;27.63;26.10;;;;;;;;;;5011882;28;20481;-65
2021/07/09 06:49:03;;;;;;;26.80;25.20;;;;;;;;;;5011749;28;20461;-66
2021/07/09 06:51:32;;;;;;;26.60;25.20;;;;;;;;;;5011683;28;20560;-66
2021/07/09 06:53:59;;;;;;;27.23;25.50;;;;;;;;;;5011544;28;20450;-66
2021/07/09 06:56:26;;;;;;;26.20;24.80;;;;;;;;;;5006710;28;20480;-68
2021/07/09 06:58:53;;;;;;;25.93;24.43;;;;;;;;;;5013869;28;20480;-66
2021/07/09 07:01:20;;;;;;;26.70;25.30;;;;;;;;;;5011037;28;20461;-67
2021/07/09 07:03:47;;;;;;;27.10;25.37;;;;;;;;;;5011301;28;20991;-66
2021/07/09 07:06:14;;;;;;;26.40;24.90;;;;;;;;;;5011035;28;20504;-66
2021/07/09 07:08:43;;;;;;;27.40;25.90;;;;;;;;;;5011404;28;20453;-69
2021/07/09 07:11:10;;;;;;;27.27;25.50;;;;;;;;;;5011114;28;20456;-70
2021/07/09 07:13:37;;;;;;;27.57;25.87;;;;;;;;;;5010425;28;20442;-68
2021/07/09 07:16:07;;;;;;;29.30;27.60;;;;;;;;;;5010678;28;21277;-67
2021/07/09 07:18:34;;;;;;;30.17;28.47;;;;;;;;;;5011303;28;20449;-68
2021/07/09 07:21:01;;;;;;;28.20;26.53;;;;;;;;;;4998421;28;20461;-69
2021/07/09 07:23:28;;;;;;;29.00;27.37;;;;;;;;;;5010692;28;20495;-69
2021/07/09 07:25:57;;;;;;;28.60;27.00;;;;;;;;;;5010959;28;20858;-69
2021/07/09 07:28:24;;;;;;;35.27;33.17;;;;;;;;;;5011232;28;20450;-69
2021/07/09 07:30:51;;;;;;;37.40;35.10;;;;;;;;;;5011260;28;21008;-68
2021/07/09 07:33:18;;;;;;;41.43;39.13;;;;;;;;;;5011142;28;20465;-69
2021/07/09 07:35:45;;;;;;;36.50;34.50;;;;;;;;;;5011365;28;20514;-68
2021/07/09 07:38:12;;;;;;;35.80;33.47;;;;;;;;;;5010907;28;20457;-70
2021/07/09 07:40:40;;;;;;;36.97;34.77;;;;;;;;;;5010856;28;20445;-70
2021/07/09 07:43:08;;;;;;;35.30;33.20;;;;;;;;;;5013957;28;20464;-69
2021/07/09 07:45:36;;;;;;;39.73;37.23;;;;;;;;;;5014984;28;20483;-67
2021/07/09 07:48:03;;;;;;;40.27;37.77;;;;;;;;;;5015516;28;20453;-67
2021/07/09 07:50:30;;;;;;;43.40;40.70;;;;;;;;;;5014556;28;20457;-67
2021/07/09 07:52:57;;;;;;;42.57;40.10;;;;;;;;;;5015454;28;20480;-66
2021/07/09 07:55:24;;;;;;;41.17;38.80;;;;;;;;;;5014744;28;20475;-67
2021/07/09 07:57:52;;;;;;;41.43;38.83;;;;;;;;;;5014166;28;20464;-66
2021/07/09 08:00:20;;;;;;;43.20;40.80;;;;;;;;;;5014898;28;20453;-67
2021/07/09 08:02:48;;;;;;;43.43;40.63;;;;;;;;;;5015026;28;20465;-67
2021/07/09 08:05:15;;;;;;;37.10;34.87;;;;;;;;;;5014809;28;20493;-68
2021/07/09 08:07:43;;;;;;;38.20;35.90;;;;;;;;;;5014655;28;20458;-67
2021/07/09 08:10:10;;;;;;;37.37;35.27;;;;;;;;;;5014824;28;20453;-67
2021/07/09 08:12:38;;;;;;;38.07;35.67;;;;;;;;;;5014008;28;20461;-67
2021/07/09 08:15:05;;;;;;;35.43;33.23;;;;;;;;;;5014360;28;20477;-68
2021/07/09 08:17:34;;;;;;;37.03;34.60;;;;;;;;;;5014680;28;20463;-68
2021/07/09 08:20:01;;;;;;;36.60;34.60;;;;;;;;;;5013728;28;20469;-68
2021/07/09 08:22:28;;;;;;;35.50;33.53;;;;;;;;;;5014415;28;20460;-67
2021/07/09 08:24:55;;;;;;;33.07;31.17;;;;;;;;;;5014326;28;20495;-68
2021/07/09 08:27:22;;;;;;;39.80;37.60;;;;;;;;;;5014437;28;20449;-68
2021/07/09 08:29:49;;;;;;;33.20;31.20;;;;;;;;;;5014145;28;20515;-68
2021/07/09 08:32:16;;;;;;;29.57;27.70;;;;;;;;;;5013797;28;20521;-67
2021/07/09 08:34:45;;;;;;;31.60;29.50;;;;;;;;;;5014229;28;20557;-66
2021/07/09 08:37:12;;;;;;;31.00;29.30;;;;;;;;;;5014143;28;20458;-66
2021/07/09 08:39:39;;;;;;;29.97;28.30;;;;;;;;;;5013777;28;20450;-67
2021/07/09 08:42:06;;;;;;;30.67;28.97;;;;;;;;;;5010866;28;20474;-66
2021/07/09 08:44:33;;;;;;;29.97;28.17;;;;;;;;;;5013186;28;20492;-66
2021/07/09 08:47:01;;;;;;;30.57;28.87;;;;;;;;;;5010256;28;20453;-66
2021/07/09 08:49:28;;;;;;;28.70;26.90;;;;;;;;;;5014396;28;20446;-66
2021/07/09 08:51:56;;;;;;;27.50;25.90;;;;;;;;;;5013382;28;20831;-66
2021/07/09 08:54:23;;;;;;;26.10;24.70;;;;;;;;;;5013072;28;20453;-66
2021/07/09 08:56:51;;;;;;;25.63;24.23;;;;;;;;;;5013763;28;20466;-66
2021/07/09 08:59:19;;;;;;;25.77;24.30;;;;;;;;;;5013707;28;20881;-66
2021/07/09 09:01:50;;;;;;;25.40;24.00;;;;;;;;;;5012840;28;20868;-66
2021/07/09 09:04:23;;;;;;;25.00;23.50;;;;;;;;;;5013799;28;20489;-66
2021/07/09 09:06:58;;;;;;;23.93;22.63;;;;;;;;;;5009758;28;20477;-66
2021/07/09 09:09:25;;;;;;;23.00;21.70;;;;;;;;;;5013506;28;20947;-66
2021/07/09 09:12:02;;;;;;;22.50;21.20;;;;;;;;;;5013701;28;20549;-66
2021/07/09 09:14:29;;;;;;;22.40;21.20;;;;;;;;;;5011209;28;20464;-66
2021/07/09 09:16:56;;;;;;;23.40;22.10;;;;;;;;;;5009653;28;20454;-66
2021/07/09 09:19:24;;;;;;;23.30;21.90;;;;;;;;;;5013145;28;20460;-66
2021/07/09 09:22:06;;;;;;;27.27;25.87;;;;;;;;;;5012094;28;20491;-66
2021/07/09 09:24:34;;;;;;;27.60;26.00;;;;;;;;;;5012095;28;20988;-66
2021/07/09 09:27:02;;;;;;;27.63;26.13;;;;;;;;;;5012310;28;20995;-66
2021/07/09 09:29:36;;;;;;;26.83;25.37;;;;;;;;;;5012954;28;20445;-66
2021/07/09 09:32:05;;;;;;;26.60;25.00;;;;;;;;;;5012386;28;20453;-67
2021/07/09 09:34:36;;;;;;;24.47;23.27;;;;;;;;;;5013069;28;20550;-66
2021/07/09 09:37:04;;;;;;;27.50;26.10;;;;;;;;;;5013207;28;20949;-66
2021/07/09 09:39:31;;;;;;;28.20;26.50;;;;;;;;;;5012474;28;20457;-67
2021/07/09 09:42:17;;;;;;;26.67;25.17;;;;;;;;;;5008874;28;22207;-66
2021/07/09 09:44:44;;;;;;;26.70;25.10;;;;;;;;;;5011066;28;20481;-67
2021/07/09 09:47:16;;;;;;;24.87;23.57;;;;;;;;;;5011717;28;20465;-66
2021/07/09 09:49:44;;;;;;;26.43;25.03;;;;;;;;;;5012378;28;20458;-67
2021/07/09 09:52:11;;;;;;;24.63;23.33;;;;;;;;;;5012862;28;20469;-67
2021/07/09 09:54:38;;;;;;;28.50;26.90;;;;;;;;;;5011887;28;20450;-67
2021/07/09 09:57:06;;;;;;;27.40;25.90;;;;;;;;;;5012514;28;20460;-68
2021/07/09 09:59:42;;;;;;;26.87;25.37;;;;;;;;;;5012698;28;20473;-68
2021/07/09 10:02:09;;;;;;;28.77;27.17;;;;;;;;;;5010198;28;20449;-67
2021/07/09 10:04:36;;;;;;;24.10;22.67;;;;;;;;;;5010931;28;20488;-67
2021/07/09 10:07:03;;;;;;;23.70;22.50;;;;;;;;;;5047995;22;21017;-69
2021/07/09 10:09:31;;;;;;;24.13;22.83;;;;;;;;;;5050124;28;20459;-69
2021/07/09 10:12:03;;;;;;;24.40;23.03;;;;;;;;;;5047784;28;20446;-69
2021/07/09 10:14:30;;;;;;;23.67;22.37;;;;;;;;;;5052226;28;20972;-69
2021/07/09 10:17:01;;;;;;;24.40;23.00;;;;;;;;;;5052664;28;20469;-69
2021/07/09 10:19:29;;;;;;;23.97;22.67;;;;;;;;;;5051753;28;20446;-68
2021/07/09 10:21:56;;;;;;;31.27;28.90;;;;;;;;;;5052048;28;20464;-68
2021/07/09 10:24:23;;;;;;;25.10;23.60;;;;;;;;;;5052166;28;20483;-68
2021/07/09 10:26:51;;;;;;;25.00;23.60;;;;;;;;;;5056165;28;20467;-69
2021/07/09 10:29:20;;;;;;;24.97;23.50;;;;;;;;;;5071500;28;20929;-67
2021/07/09 10:31:48;;;;;;;23.77;22.43;;;;;;;;;;5063998;28;20447;-67
2021/07/09 10:34:25;;;;;;;24.50;23.10;;;;;;;;;;5051464;28;20458;-67
2021/07/09 10:36:53;;;;;;;24.50;23.00;;;;;;;;;;5051885;28;20505;-67
2021/07/09 10:39:31;;;;;;;24.80;23.50;;;;;;;;;;5051871;28;20453;-67
2021/07/09 10:42:12;;;;;;;24.30;23.00;;;;;;;;;;5054625;28;20821;-67
2021/07/09 10:44:39;;;;;;;24.53;23.03;;;;;;;;;;5071584;28;20471;-67
2021/07/09 10:47:16;;;;;;;24.63;23.20;;;;;;;;;;5070671;28;20482;-67
2021/07/09 10:49:59;;;;;;;24.40;23.00;;;;;;;;;;5052245;28;20868;-67
2021/07/09 10:52:44;;;;;;;22.33;21.23;;;;;;;;;;5054482;28;20473;-68
2021/07/09 10:55:26;;;;;;;23.53;22.30;;;;;;;;;;5056943;28;20446;-67
2021/07/09 10:58:17;;;;;;;23.90;22.40;;;;;;;;;;5030766;28;20557;-68
2021/07/09 11:00:45;;;;;;;23.27;21.97;;;;;;;;;;5055247;28;20449;-68
2021/07/09 11:03:13;;;;;;;23.43;22.13;;;;;;;;;;5053619;28;20447;-67
2021/07/09 11:05:58;;;;;;;23.37;22.10;;;;;;;;;;5053796;28;20483;-67
2021/07/09 11:08:39;;;;;;;23.47;22.17;;;;;;;;;;5054967;28;20478;-68
2021/07/09 11:11:08;;;;;;;23.97;22.67;;;;;;;;;;5071581;28;20482;-66
2021/07/09 11:13:45;;;;;;;24.07;22.70;;;;;;;;;;5065782;28;20479;-67
2021/07/09 11:16:18;;;;;;;23.70;22.40;;;;;;;;;;5053703;28;20445;-66
2021/07/09 11:18:50;;;;;;;24.60;23.20;;;;;;;;;;5062503;28;20473;-67
2021/07/09 11:21:19;;;;;;;24.70;23.20;;;;;;;;;;5063985;28;20455;-68
2021/07/09 11:23:53;;;;;;;23.57;22.27;;;;;;;;;;5061439;28;20451;-67
2021/07/09 11:26:20;;;;;;;23.80;22.50;;;;;;;;;;5073359;28;20486;-67
2021/07/09 11:28:48;;;;;;;23.30;22.00;;;;;;;;;;5055584;28;20956;-67
2021/07/09 11:31:30;;;;;;;23.73;22.47;;;;;;;;;;5055356;28;20452;-68
2021/07/09 11:34:00;;;;;;;29.00;27.43;;;;;;;;;;5035498;28;20849;-67
2021/07/09 11:36:29;;;;;;;28.43;26.73;;;;;;;;;;5045936;28;21050;-68
2021/07/09 11:39:06;;;;;;;28.00;26.60;;;;;;;;;;5051744;28;20462;-67
2021/07/09 11:41:33;;;;;;;27.60;26.17;;;;;;;;;;5056733;28;20497;-66
2021/07/09 11:44:00;;;;;;;27.37;25.77;;;;;;;;;;5055817;28;20447;-67
2021/07/09 11:46:28;;;;;;;28.20;26.70;;;;;;;;;;5055247;28;20514;-68
2021/07/09 11:49:01;;;;;;;28.33;26.83;;;;;;;;;;5074827;28;20458;-68
2021/07/09 11:51:29;;;;;;;26.67;25.20;;;;;;;;;;5059129;28;20518;-68
2021/07/09 11:54:06;;;;;;;27.23;25.83;;;;;;;;;;5059064;28;20454;-67
2021/07/09 11:56:41;;;;;;;28.20;26.60;;;;;;;;;;5054872;28;20479;-69
2021/07/09 11:59:14;;;;;;;26.93;25.43;;;;;;;;;;5062211;28;20977;-69
2021/07/09 12:01:41;;;;;;;28.47;26.97;;;;;;;;;;5054171;28;20513;-68
2021/07/09 12:04:09;;;;;;;30.00;28.50;;;;;;;;;;5054507;28;20822;-68
2021/07/09 12:06:37;;;;;;;31.30;29.70;;;;;;;;;;5055087;28;20488;-67
2021/07/09 12:09:04;;;;;;;26.77;25.37;;;;;;;;;;5072043;28;20443;-68
2021/07/09 12:11:31;;;;;;;25.87;24.50;;;;;;;;;;5074240;28;20442;-68
2021/07/09 12:14:05;;;;;;;25.30;23.90;;;;;;;;;;5065937;28;20457;-68
2021/07/09 12:16:32;;;;;;;26.53;25.13;;;;;;;;;;5054585;28;20472;-68
2021/07/09 12:18:59;;;;;;;26.33;24.93;;;;;;;;;;5056154;28;20546;-68
2021/07/09 12:21:28;;;;;;;26.27;24.87;;;;;;;;;;5053333;28;20470;-68
2021/07/09 12:24:06;;;;;;;24.90;23.60;;;;;;;;;;5060798;28;20461;-68
2021/07/09 12:26:34;;;;;;;26.20;24.80;;;;;;;;;;5063763;28;20571;-68
2021/07/09 12:29:01;;;;;;;25.73;24.33;;;;;;;;;;5053447;28;20472;-68
2021/07/09 12:31:28;;;;;;;24.20;22.90;;;;;;;;;;5053322;28;20455;-69
2021/07/09 12:33:56;;;;;;;25.13;23.73;;;;;;;;;;5053639;28;20464;-68
2021/07/09 12:36:23;;;;;;;30.30;28.70;;;;;;;;;;5053570;28;20483;-69
2021/07/09 12:38:58;;;;;;;29.87;28.07;;;;;;;;;;5058473;28;20459;-68
2021/07/09 12:41:32;;;;;;;29.40;27.80;;;;;;;;;;5073303;28;20480;-68
2021/07/09 12:44:06;;;;;;;28.93;27.33;;;;;;;;;;5073373;28;20458;-68
2021/07/09 12:46:33;;;;;;;29.43;27.80;;;;;;;;;;5063803;28;20561;-67
2021/07/09 12:49:01;;;;;;;28.80;27.20;;;;;;;;;;5067883;28;20790;-68
2021/07/09 12:51:31;;;;;;;27.93;26.43;;;;;;;;;;5038801;28;20456;-67
2021/07/09 12:53:59;;;;;;;28.97;27.37;;;;;;;;;;5067048;28;20443;-67
2021/07/09 12:56:28;;;;;;;29.20;27.60;;;;;;;;;;5060193;28;20472;-67
2021/07/09 12:59:06;;;;;;;27.80;26.30;;;;;;;;;;5056148;28;20964;-68
2021/07/09 13:01:33;;;;;;;29.80;28.10;;;;;;;;;;5060066;28;20967;-67
2021/07/09 13:04:00;;;;;;;29.70;28.10;;;;;;;;;;5069519;28;20449;-68
2021/07/09 13:06:28;;;;;;;29.93;28.13;;;;;;;;;;5052223;28;20998;-68
2021/07/09 13:09:09;;;;;;;29.93;28.43;;;;;;;;;;5061351;28;20462;-69
2021/07/09 13:11:39;;;;;;;30.67;28.97;;;;;;;;;;5055400;28;20448;-67
2021/07/09 13:14:07;;;;;;;30.00;28.40;;;;;;;;;;5052641;28;20455;-68
2021/07/09 13:16:46;;;;;;;32.33;30.67;;;;;;;;;;5065912;28;20478;-68
2021/07/09 13:19:13;;;;;;;30.30;28.53;;;;;;;;;;5057701;28;20450;-66
2021/07/09 13:21:48;;;;;;;29.67;27.97;;;;;;;;;;5053557;28;20478;-66
2021/07/09 13:24:15;;;;;;;28.90;27.20;;;;;;;;;;5053771;28;20440;-64
2021/07/09 13:26:43;;;;;;;31.10;29.40;;;;;;;;;;5064246;28;21028;-63
2021/07/09 13:29:19;;;;;;;32.33;30.63;;;;;;;;;;5053961;28;20452;-64
2021/07/09 13:31:47;;;;;;;33.40;31.70;;;;;;;;;;5052998;28;20451;-66
2021/07/09 13:34:15;;;;;;;32.37;30.67;;;;;;;;;;5053061;28;20452;-63
2021/07/09 13:36:42;;;;;;;33.17;31.47;;;;;;;;;;5052683;28;20470;-63
2021/07/09 13:39:09;;;;;;;33.40;31.60;;;;;;;;;;5052928;28;20454;-64
2021/07/09 13:41:37;;;;;;;32.47;30.67;;;;;;;;;;5052131;28;20460;-65
2021/07/09 13:44:04;;;;;;;39.37;37.17;;;;;;;;;;5052437;28;20531;-63
2021/07/09 13:46:32;;;;;;;36.57;34.57;;;;;;;;;;5051401;28;21028;-65
2021/07/09 13:49:01;;;;;;;35.33;33.23;;;;;;;;;;5052977;28;20447;-64
2021/07/09 13:51:28;;;;;;;35.67;33.67;;;;;;;;;;5055344;28;20554;-64
2021/07/09 13:53:55;;;;;;;34.20;32.30;;;;;;;;;;5066982;28;20450;-65
2021/07/09 13:56:22;;;;;;;31.20;29.50;;;;;;;;;;5052424;28;21251;-64
2021/07/09 13:58:49;;;;;;;32.30;30.50;;;;;;;;;;5053627;28;20474;-65
2021/07/09 14:01:17;;;;;;;31.13;29.33;;;;;;;;;;5063483;28;20977;-67
2021/07/09 14:03:45;;;;;;;30.30;28.60;;;;;;;;;;5052340;28;20448;-64
2021/07/09 14:06:14;;;;;;;28.97;27.30;;;;;;;;;;5062639;28;20501;-64
2021/07/09 14:08:41;;;;;;;28.97;27.27;;;;;;;;;;5071309;28;20451;-68
2021/07/09 14:11:09;;;;;;;30.17;28.37;;;;;;;;;;5072452;28;20516;-65
2021/07/09 14:13:37;;;;;;;28.60;26.97;;;;;;;;;;5068857;28;20472;-65
2021/07/09 14:16:04;;;;;;;29.57;27.87;;;;;;;;;;5052673;28;20448;-65
2021/07/09 14:18:31;;;;;;;29.10;27.40;;;;;;;;;;5053917;28;20452;-67
2021/07/09 14:21:00;;;;;;;27.83;26.23;;;;;;;;;;5053368;28;20950;-65
2021/07/09 14:23:27;;;;;;;27.20;25.70;;;;;;;;;;5053675;28;20456;-65
2021/07/09 14:25:54;;;;;;;27.53;26.03;;;;;;;;;;5053285;28;20478;-65